Time;durP1;ratioP1;P1;durP2;ratioP2;P2;SDS_P1;SDS_P2;PMS_P1;PMS_P2;Temp;Humidity;BMP_temperature;BMP_pressure;BME280_temperature;BME280_humidity;BME280_pressure;Samples;Min_cycle;Max_cycle;Signal;HPM_P1;HPM_P2
2021/12/08 00:01:03;;;;;;;38.60;23.80;;;1.50;99.90;;;;;;4976377;28;20019;-70
2021/12/08 00:03:30;;;;;;;43.95;25.90;;;1.50;99.90;;;;;;4968051;28;20039;-71
2021/12/08 00:05:57;;;;;;;41.20;23.20;;;1.50;99.90;;;;;;4957593;28;20041;-72
2021/12/08 00:08:27;;;;;;;44.28;23.92;;;1.50;99.90;;;;;;4969058;28;20033;-72
2021/12/08 00:13:02;;;;;;;46.35;25.50;;;1.50;99.90;;;;;;4976854;28;20102;-72
2021/12/08 00:13:38;;;;;;;46.55;27.30;;;1.40;99.90;;;;;;4992025;28;20042;-69
2021/12/08 00:16:11;;;;;;;41.92;23.80;;;1.40;99.90;;;;;;4987543;28;20019;-68
2021/12/08 00:18:44;;;;;;;37.05;23.52;;;1.40;99.90;;;;;;4976654;28;20362;-71
2021/12/08 00:21:10;;;;;;;;;;;1.40;99.90;;;;;;4986742;28;20592;-71
2021/12/08 00:23:37;;;;;;;43.55;25.55;;;1.30;99.90;;;;;;4986999;28;19914;-69
2021/12/08 00:26:04;;;;;;;36.80;22.45;;;1.30;99.90;;;;;;4991390;28;20491;-69
2021/12/08 00:28:31;;;;;;;37.60;21.80;;;1.30;99.90;;;;;;4980594;28;20038;-70
2021/12/08 00:30:59;;;;;;;42.35;24.20;;;1.30;99.90;;;;;;4975806;28;20054;-67
2021/12/08 00:33:28;;;;;;;40.00;24.27;;;1.20;99.90;;;;;;4966731;28;20473;-70
2021/12/08 00:35:55;;;;;;;44.75;24.63;;;1.20;99.90;;;;;;4976796;28;20019;-68
2021/12/08 00:38:21;;;;;;;36.40;22.80;;;1.20;99.90;;;;;;4988048;28;20080;-69
2021/12/08 00:40:49;;;;;;;36.17;22.25;;;1.10;99.90;;;;;;4976554;28;20470;-71
2021/12/08 00:43:16;;;;;;;36.55;21.40;;;1.10;99.90;;;;;;4976419;28;20085;-70
2021/12/08 00:45:42;;;;;;;34.50;20.98;;;1.10;99.90;;;;;;4973322;28;20479;-70
2021/12/08 00:48:08;;;;;;;35.67;23.00;;;1.10;99.90;;;;;;4980909;28;20154;-70
2021/12/08 00:50:36;;;;;;;33.35;21.48;;;1.10;99.90;;;;;;4982604;28;20118;-69
2021/12/08 00:53:03;;;;;;;31.80;21.90;;;1.10;99.90;;;;;;4975465;28;20054;-69
2021/12/08 00:55:29;;;;;;;35.70;21.35;;;1.00;99.90;;;;;;4975918;28;20042;-69
2021/12/08 00:57:55;;;;;;;39.40;23.67;;;1.10;99.90;;;;;;4976079;28;20026;-71
2021/12/08 01:00:25;;;;;;;35.58;23.23;;;1.00;99.90;;;;;;4975815;28;20106;-69
2021/12/08 01:02:51;;;;;;;38.17;22.25;;;1.10;99.90;;;;;;4976903;28;20050;-69
2021/12/08 01:05:20;;;;;;;35.50;21.02;;;1.00;99.90;;;;;;4985127;28;20031;-71
2021/12/08 01:07:47;;;;;;;35.40;21.23;;;1.00;99.90;;;;;;4973501;28;20120;-71
2021/12/08 01:10:20;;;;;;;36.80;20.80;;;1.00;99.90;;;;;;4976903;28;20023;-72
2021/12/08 01:12:46;;;;;;;36.60;21.10;;;1.00;99.90;;;;;;4974614;28;20045;-68
2021/12/08 01:15:13;;;;;;;38.75;23.50;;;1.00;99.90;;;;;;4974038;28;20022;-72
2021/12/08 01:17:40;;;;;;;33.55;21.02;;;1.00;99.90;;;;;;4975394;28;20122;-68
2021/12/08 01:20:09;;;;;;;34.53;21.05;;;1.00;99.90;;;;;;4987628;28;20030;-68
2021/12/08 01:22:35;;;;;;;33.88;20.45;;;1.00;99.90;;;;;;4994931;28;20026;-72
2021/12/08 01:25:01;;;;;;;36.47;20.70;;;0.90;99.90;;;;;;4985549;28;20026;-72
2021/12/08 01:27:29;;;;;;;34.92;20.17;;;0.90;99.90;;;;;;4973578;28;20434;-69
2021/12/08 01:29:55;;;;;;;36.28;20.80;;;1.00;99.90;;;;;;4974051;28;20029;-70
2021/12/08 01:32:22;;;;;;;34.47;19.92;;;1.00;99.90;;;;;;4974162;28;20053;-71
2021/12/08 01:34:47;;;;;;;34.53;20.73;;;1.00;99.90;;;;;;4973882;28;20598;-71
2021/12/08 01:37:13;;;;;;;35.83;20.85;;;1.00;99.90;;;;;;4973760;28;20023;-73
2021/12/08 01:39:40;;;;;;;34.85;21.13;;;1.00;99.90;;;;;;4973456;28;20035;-72
2021/12/08 01:42:15;;;;;;;34.83;21.55;;;1.00;99.90;;;;;;4973979;28;20382;-70
2021/12/08 01:47:27;;;;;;;32.47;19.40;;;1.10;99.90;;;;;;4973677;28;20027;-71
2021/12/08 01:49:53;;;;;;;33.17;19.92;;;1.10;99.90;;;;;;4973601;28;20489;-72
2021/12/08 01:52:19;;;;;;;34.15;19.58;;;1.10;99.90;;;;;;4973240;28;20133;-70
2021/12/08 01:54:45;;;;;;;34.65;20.70;;;1.00;99.90;;;;;;4973592;28;20201;-69
2021/12/08 01:57:11;;;;;;;34.85;19.75;;;1.10;99.90;;;;;;4973433;28;20454;-70
2021/12/08 01:59:37;;;;;;;35.03;20.80;;;1.00;99.90;;;;;;4973677;28;20046;-72
2021/12/08 02:02:03;;;;;;;30.27;19.08;;;1.00;99.90;;;;;;4972190;28;20061;-70
2021/12/08 02:04:29;;;;;;;30.67;19.08;;;1.00;99.90;;;;;;4973465;28;20030;-72
2021/12/08 02:06:57;;;;;;;29.17;17.58;;;1.00;99.90;;;;;;4972314;28;20030;-71
2021/12/08 02:09:23;;;;;;;33.17;18.83;;;1.00;99.90;;;;;;4972849;28;20089;-72
2021/12/08 02:11:53;;;;;;;28.77;16.90;;;1.00;99.90;;;;;;4973198;28;20043;-70
2021/12/08 02:14:19;;;;;;;30.20;17.08;;;1.00;99.90;;;;;;4973181;28;20045;-67
2021/12/08 02:16:47;;;;;;;31.05;17.88;;;1.00;99.90;;;;;;4973450;28;20018;-71
2021/12/08 02:19:12;;;;;;;34.95;19.05;;;1.00;99.90;;;;;;4973297;28;20038;-71
2021/12/08 02:21:41;;;;;;;29.80;18.08;;;1.00;99.90;;;;;;4972970;28;20373;-71
2021/12/08 02:24:10;;;;;;;33.22;18.00;;;1.00;99.90;;;;;;4973232;28;20034;-70
2021/12/08 02:26:38;;;;;;;27.98;18.08;;;1.00;99.90;;;;;;4973132;28;20023;-72
2021/12/08 02:29:11;;;;;;;30.27;18.42;;;1.00;99.90;;;;;;4969506;28;20018;-72
2021/12/08 02:32:00;;;;;;;30.30;17.30;;;1.00;99.90;;;;;;4969265;28;20030;-72
2021/12/08 02:48:09;;;;;;;33.65;18.45;;;1.00;99.90;;;;;;4972935;28;20031;-71
2021/12/08 02:50:43;;;;;;;31.48;18.30;;;1.00;99.90;;;;;;4969046;28;20113;-70
2021/12/08 02:53:14;;;;;;;32.67;19.08;;;1.00;99.90;;;;;;4972117;28;20046;-70
2021/12/08 02:55:41;;;;;;;29.63;17.48;;;1.00;99.90;;;;;;4972814;28;20386;-69
2021/12/08 02:58:08;;;;;;;32.33;18.13;;;1.00;99.90;;;;;;4972778;28;20069;-68
2021/12/08 03:00:40;;;;;;;29.92;17.08;;;1.00;99.90;;;;;;4968398;28;20054;-70
2021/12/08 03:03:07;;;;;;;30.67;16.15;;;1.00;99.90;;;;;;4972765;28;20117;-68
2021/12/08 03:05:33;;;;;;;34.03;18.35;;;1.00;99.90;;;;;;4972690;28;20031;-68
2021/12/08 03:08:00;;;;;;;32.78;17.65;;;1.00;99.90;;;;;;4972563;28;20070;-67
2021/12/08 03:10:29;;;;;;;33.55;17.65;;;1.00;99.90;;;;;;4972827;28;20019;-67
2021/12/08 03:12:56;;;;;;;30.42;17.70;;;1.00;99.90;;;;;;4972556;28;20049;-70
2021/12/08 03:15:22;;;;;;;29.48;18.42;;;1.00;99.90;;;;;;4972682;28;20025;-68
2021/12/08 03:17:48;;;;;;;33.05;18.45;;;1.00;99.90;;;;;;4972437;28;20030;-70
2021/12/08 03:20:28;;;;;;;32.22;18.20;;;1.00;99.90;;;;;;4972133;28;20015;-69
2021/12/08 03:23:00;;;;;;;27.25;17.05;;;0.90;99.90;;;;;;4972308;28;20031;-69
2021/12/08 03:25:28;;;;;;;28.70;17.33;;;0.90;99.90;;;;;;4972384;28;20433;-67
2021/12/08 03:28:06;;;;;;;28.73;17.10;;;0.90;99.90;;;;;;4972243;28;20034;-70
2021/12/08 03:30:39;;;;;;;25.90;16.17;;;0.90;99.90;;;;;;4972505;28;20026;-69
2021/12/08 03:33:05;;;;;;;30.60;15.98;;;0.90;99.90;;;;;;4972025;28;20133;-68
2021/12/08 03:35:31;;;;;;;30.80;16.67;;;0.90;99.90;;;;;;4972401;28;20027;-70
2021/12/08 03:37:58;;;;;;;27.60;17.20;;;0.90;99.90;;;;;;4972127;28;20755;-67
2021/12/08 03:40:26;;;;;;;30.40;16.80;;;0.90;99.90;;;;;;4972353;28;20102;-69
2021/12/08 03:42:54;;;;;;;28.13;16.48;;;0.90;99.90;;;;;;4972092;28;20086;-69
2021/12/08 03:45:26;;;;;;;27.10;16.33;;;0.90;99.90;;;;;;4972001;28;20105;-69
2021/12/08 03:48:02;;;;;;;23.70;15.50;;;0.90;99.90;;;;;;4972062;28;20078;-69
2021/12/08 03:50:32;;;;;;;24.77;15.60;;;0.90;99.90;;;;;;4972329;28;20065;-70
2021/12/08 03:52:58;;;;;;;27.70;16.15;;;0.90;99.90;;;;;;4971592;28;20054;-68
2021/12/08 03:55:24;;;;;;;26.88;15.85;;;0.90;99.90;;;;;;4971972;28;20486;-69
2021/12/08 03:57:51;;;;;;;25.67;15.65;;;0.90;99.90;;;;;;4972183;28;20026;-68
2021/12/08 04:00:20;;;;;;;27.10;16.20;;;0.90;99.90;;;;;;4974073;28;20408;-68
2021/12/08 04:02:46;;;;;;;22.90;14.85;;;0.90;99.90;;;;;;4975692;28;20019;-69
2021/12/08 04:05:19;;;;;;;29.38;17.05;;;0.90;99.90;;;;;;4975412;28;20027;-67
2021/12/08 04:07:51;;;;;;;29.60;17.40;;;0.90;99.90;;;;;;4975392;28;20053;-67
2021/12/08 04:10:20;;;;;;;28.13;16.15;;;0.90;99.90;;;;;;4975030;28;20030;-68
2021/12/08 04:12:53;;;;;;;27.02;16.60;;;0.80;99.90;;;;;;4975126;28;20046;-70
2021/12/08 04:15:24;;;;;;;26.85;17.10;;;0.90;99.90;;;;;;4975293;28;20038;-69
2021/12/08 04:17:53;;;;;;;26.48;16.92;;;0.90;99.90;;;;;;4974993;28;20536;-67
2021/12/08 04:20:25;;;;;;;26.73;15.60;;;0.90;99.90;;;;;;4975150;28;20019;-68
2021/12/08 04:22:54;;;;;;;31.13;17.13;;;0.90;99.90;;;;;;4975210;28;20019;-67
2021/12/08 04:25:32;;;;;;;26.38;14.98;;;0.80;99.90;;;;;;4975179;28;20046;-68
2021/12/08 04:28:00;;;;;;;26.65;16.20;;;0.80;99.90;;;;;;4974791;28;20034;-71
2021/12/08 04:30:34;;;;;;;29.30;16.10;;;0.80;99.90;;;;;;4974821;28;20489;-69
2021/12/08 04:33:00;;;;;;;31.83;18.27;;;0.80;99.90;;;;;;4974804;28;20389;-66
2021/12/08 04:35:27;;;;;;;32.85;18.90;;;0.90;99.90;;;;;;4974855;28;20081;-68
2021/12/08 04:37:58;;;;;;;31.08;17.63;;;0.90;99.90;;;;;;4975126;28;20085;-66
2021/12/08 04:40:48;;;;;;;31.65;18.25;;;1.00;99.90;;;;;;4974505;28;20220;-67
2021/12/08 04:43:25;;;;;;;28.20;17.85;;;1.00;99.90;;;;;;4974594;28;20046;-70
2021/12/08 04:46:14;;;;;;;36.45;19.45;;;1.00;99.90;;;;;;4974647;28;20033;-70
2021/12/08 04:51:43;;;;;;;34.67;21.50;;;1.00;99.90;;;;;;4971300;28;20117;-69
2021/12/08 05:07:51;;;;;;;36.92;22.42;;;1.00;99.90;;;;;;4974203;28;20429;-70
2021/12/08 05:10:26;;;;;;;36.58;20.17;;;1.00;99.90;;;;;;4974299;28;20030;-71
2021/12/08 05:12:52;;;;;;;34.97;19.77;;;0.90;99.90;;;;;;4968211;28;20039;-69
2021/12/08 05:15:26;;;;;;;39.72;20.17;;;0.70;99.90;;;;;;4955935;29;20016;-71
2021/12/08 05:17:52;;;;;;;38.15;23.08;;;0.80;99.90;;;;;;4955573;28;20020;-72
2021/12/08 05:20:31;;;;;;;42.58;23.02;;;0.80;99.90;;;;;;4956968;28;20631;-71
2021/12/08 05:23:22;;;;;;;89.80;55.28;;;0.80;99.90;;;;;;4962725;28;20023;-72
2021/12/08 05:25:48;;;;;;;74.50;47.80;;;0.70;99.90;;;;;;4973808;28;20031;-71
2021/12/08 05:28:21;;;;;;;63.05;36.78;;;0.70;99.90;;;;;;4975210;28;20046;-68
2021/12/08 05:30:51;;;;;;;58.58;38.92;;;0.70;99.90;;;;;;4974837;28;20027;-70
2021/12/08 05:33:18;;;;;;;72.97;42.70;;;0.70;99.90;;;;;;4974800;28;20038;-69
2021/12/08 05:35:44;;;;;;;67.43;43.05;;;0.60;99.90;;;;;;4955232;28;20038;-68
2021/12/08 05:38:11;;;;;;;70.57;40.33;;;0.60;99.90;;;;;;4955803;28;20536;-72
2021/12/08 05:40:49;;;;;;;55.40;34.05;;;0.70;99.90;;;;;;4967393;28;20029;-71
2021/12/08 05:43:16;;;;;;;48.83;31.67;;;0.60;99.90;;;;;;4974329;28;20031;-71
2021/12/08 05:45:42;;;;;;;47.22;30.02;;;0.60;99.90;;;;;;4974620;28;20106;-71
2021/12/08 05:48:09;;;;;;;48.88;30.45;;;0.50;99.90;;;;;;4974968;28;20473;-67
2021/12/08 05:50:55;;;;;;;44.58;29.00;;;0.50;99.90;;;;;;4974889;28;20050;-72
2021/12/08 05:53:23;;;;;;;47.22;29.23;;;0.60;99.90;;;;;;4973827;28;20589;-70
2021/12/08 05:55:49;;;;;;;47.83;26.08;;;0.60;99.90;;;;;;4974524;28;20048;-72
2021/12/08 05:58:18;;;;;;;37.67;22.85;;;0.70;99.90;;;;;;4974604;28;20038;-70
2021/12/08 06:00:50;;;;;;;35.88;20.42;;;0.70;99.90;;;;;;4974693;28;20031;-70
2021/12/08 06:03:17;;;;;;;38.85;21.27;;;0.60;99.90;;;;;;4973988;28;20054;-66
2021/12/08 06:05:45;;;;;;;33.85;19.55;;;0.60;99.90;;;;;;4974074;28;20019;-70
2021/12/08 06:08:11;;;;;;;35.50;20.00;;;0.60;99.90;;;;;;4974367;28;20696;-71
2021/12/08 06:10:39;;;;;;;33.80;19.98;;;0.70;99.90;;;;;;4974371;28;20058;-72
2021/12/08 06:13:08;;;;;;;41.45;24.80;;;0.70;99.90;;;;;;4973762;28;20053;-69
2021/12/08 06:15:34;;;;;;;50.20;29.67;;;0.70;99.90;;;;;;4974115;28;20023;-66
2021/12/08 06:18:00;;;;;;;45.92;28.00;;;0.60;99.90;;;;;;4974623;28;20031;-72
2021/12/08 06:20:26;;;;;;;40.35;25.27;;;0.60;99.90;;;;;;4973593;28;20023;-67
2021/12/08 06:22:56;;;;;;;40.05;24.65;;;0.60;99.90;;;;;;4971523;28;20031;-72
2021/12/08 06:25:23;;;;;;;40.35;24.85;;;0.60;99.90;;;;;;4964700;28;20130;-71
2021/12/08 06:27:49;;;;;;;43.70;26.30;;;0.60;99.90;;;;;;4959874;28;20038;-67
2021/12/08 06:30:21;;;;;;;41.70;28.02;;;0.70;99.90;;;;;;4973656;28;20027;-70
2021/12/08 06:32:47;;;;;;;51.45;35.22;;;0.70;99.90;;;;;;4955297;28;20382;-67
2021/12/08 06:35:22;;;;;;;59.22;37.47;;;0.80;99.90;;;;;;4957566;28;20030;-69
2021/12/08 06:37:49;;;;;;;57.15;35.25;;;0.90;99.90;;;;;;4962759;28;20041;-67
2021/12/08 06:40:24;;;;;;;61.65;36.67;;;1.00;99.90;;;;;;4973477;28;20113;-72
2021/12/08 06:42:54;;;;;;;64.32;36.35;;;1.10;99.90;;;;;;4972971;28;20134;-66
2021/12/08 06:45:24;;;;;;;55.90;36.72;;;1.20;99.90;;;;;;4973226;28;20023;-70
2021/12/08 06:47:53;;;;;;;46.20;27.30;;;1.30;99.90;;;;;;4973207;28;20061;-73
2021/12/08 06:50:24;;;;;;;45.50;28.92;;;1.40;99.90;;;;;;4973744;28;20073;-72
2021/12/08 06:52:52;;;;;;;48.22;29.75;;;1.50;99.90;;;;;;4972629;28;20118;-70
2021/12/08 06:55:22;;;;;;;55.20;33.75;;;1.60;99.90;;;;;;4973350;28;20039;-71
2021/12/08 06:57:58;;;;;;;85.38;52.05;;;1.70;99.90;;;;;;4972387;28;20121;-71
2021/12/08 07:00:47;;;;;;;83.55;51.03;;;1.80;99.90;;;;;;4973304;28;20485;-67
2021/12/08 07:08:41;;;;;;;105.55;62.50;;;2.00;99.90;;;;;;4973026;28;20030;-73
2021/12/08 07:11:08;;;;;;;112.10;70.15;;;2.10;99.90;;;;;;4972790;28;20031;-67
2021/12/08 07:13:35;;;;;;;117.15;70.90;;;2.20;99.90;;;;;;4972586;28;20401;-70
2021/12/08 07:16:15;;;;;;;174.55;99.97;;;2.30;99.90;;;;;;4972263;28;20019;-70
2021/12/08 07:18:53;;;;;;;217.13;129.48;;;2.40;99.90;;;;;;4973239;28;20516;-67
2021/12/08 07:21:24;;;;;;;145.57;90.55;;;2.30;99.90;;;;;;4971713;28;20046;-72
2021/12/08 07:23:58;;;;;;;112.45;63.60;;;2.40;99.90;;;;;;4958991;28;20027;-70
2021/12/08 07:26:28;;;;;;;81.18;49.85;;;2.50;99.90;;;;;;4972191;28;20098;-66
2021/12/08 07:28:56;;;;;;;82.38;49.05;;;2.50;99.90;;;;;;4972961;28;20038;-71
2021/12/08 07:31:33;;;;;;;80.10;47.13;;;2.60;99.90;;;;;;4974279;28;20027;-66
2021/12/08 07:34:05;;;;;;;84.68;47.30;;;2.70;99.90;;;;;;4976584;28;20027;-66
2021/12/08 07:36:33;;;;;;;126.65;77.65;;;2.80;99.90;;;;;;4977136;28;20026;-66
2021/12/08 07:39:00;;;;;;;147.73;94.70;;;2.70;99.90;;;;;;4976090;28;20038;-67
2021/12/08 07:41:32;;;;;;;161.27;103.82;;;2.90;99.90;;;;;;4976662;28;20053;-72
2021/12/08 07:44:03;;;;;;;196.70;120.47;;;3.00;99.90;;;;;;4977116;28;20023;-67
2021/12/08 07:46:33;;;;;;;199.52;126.78;;;3.10;99.90;;;;;;4976156;28;20392;-70
2021/12/08 07:49:13;;;;;;;193.55;123.65;;;3.30;99.90;;;;;;4976747;28;20041;-68
2021/12/08 07:51:44;;;;;;;195.68;121.65;;;3.30;99.90;;;;;;4973012;28;20023;-73
2021/12/08 07:54:11;;;;;;;167.38;107.68;;;3.40;99.90;;;;;;4958316;28;20044;-74
2021/12/08 07:56:39;;;;;;;148.82;92.75;;;3.40;99.90;;;;;;4957590;28;20059;-69
2021/12/08 07:59:09;;;;;;;123.68;80.10;;;3.60;99.90;;;;;;4965276;28;20078;-70
2021/12/08 08:01:40;;;;;;;111.28;71.95;;;3.60;99.90;;;;;;4971755;28;20102;-69
2021/12/08 08:04:09;;;;;;;119.82;78.97;;;3.60;99.90;;;;;;4975604;28;20060;-73
2021/12/08 08:06:40;;;;;;;141.77;90.55;;;3.70;99.90;;;;;;4975873;28;20062;-74
2021/12/08 08:09:12;;;;;;;154.20;99.63;;;3.80;99.90;;;;;;4963636;28;20035;-74
2021/12/08 08:11:43;;;;;;;129.13;84.75;;;4.00;99.90;;;;;;4962797;28;20034;-73
2021/12/08 08:14:14;;;;;;;125.40;81.97;;;4.10;99.90;;;;;;4976101;28;20066;-71
2021/12/08 08:16:43;;;;;;;106.70;66.88;;;4.20;99.90;;;;;;4958135;28;20023;-68
2021/12/08 08:19:15;;;;;;;96.30;59.85;;;4.30;99.90;;;;;;4958089;28;20446;-71
2021/12/08 08:21:46;;;;;;;97.68;59.83;;;4.50;99.90;;;;;;4962046;28;20014;-68
2021/12/08 08:24:13;;;;;;;81.60;53.85;;;4.50;99.90;;;;;;4973686;28;20026;-72
2021/12/08 08:26:42;;;;;;;77.40;50.60;;;4.60;99.90;;;;;;4974450;28;20038;-72
2021/12/08 08:29:10;;;;;;;72.43;46.17;;;4.70;99.90;;;;;;4956927;28;20472;-72
2021/12/08 08:31:42;;;;;;;78.07;49.92;;;4.80;99.90;;;;;;4965506;28;20038;-69
2021/12/08 08:34:11;;;;;;;70.43;43.72;;;4.80;99.90;;;;;;4966756;28;20035;-73
2021/12/08 08:36:42;;;;;;;61.28;41.67;;;4.80;99.90;;;;;;4971174;28;20027;-72
2021/12/08 08:39:35;;;;;;;61.05;39.35;;;4.80;99.90;;;;;;4975653;28;20025;-73
2021/12/08 08:42:16;;;;;;;68.03;44.08;;;4.80;99.90;;;;;;4975510;28;20042;-69
2021/12/08 08:44:52;;;;;;;73.50;48.38;;;5.00;99.90;;;;;;4972573;28;20480;-74
2021/12/08 08:47:25;;;;;;;66.43;44.92;;;5.00;99.90;;;;;;4974528;28;20030;-74
2021/12/08 08:49:53;;;;;;;71.07;45.38;;;5.10;99.90;;;;;;4975152;28;20039;-74
2021/12/08 08:52:26;;;;;;;59.67;38.67;;;5.10;99.90;;;;;;4974528;28;20143;-72
2021/12/08 08:54:55;;;;;;;49.72;32.95;;;5.10;99.90;;;;;;4978709;28;20080;-73
2021/12/08 08:57:26;;;;;;;72.45;43.15;;;5.20;99.90;;;;;;4994792;28;20035;-74
2021/12/08 09:00:01;;;;;;;61.72;39.97;;;5.20;99.90;;;;;;4985970;28;20758;-73
2021/12/08 09:02:34;;;;;;;49.30;32.97;;;5.30;99.90;;;;;;4974049;28;20031;-73
2021/12/08 09:05:19;;;;;;;41.75;28.48;;;5.30;99.90;;;;;;4971119;28;20023;-72
2021/12/08 09:07:49;;;;;;;56.85;37.88;;;5.40;99.90;;;;;;4973663;28;20485;-74
2021/12/08 09:10:31;;;;;;;45.45;26.15;;;5.50;99.90;;;;;;4973767;28;20491;-74
2021/12/08 09:13:02;;;;;;;36.15;21.40;;;5.50;99.90;;;;;;4974113;28;20042;-73
2021/12/08 09:15:39;;;;;;;32.55;21.13;;;5.40;99.90;;;;;;4976472;28;20039;-71
2021/12/08 09:18:14;;;;;;;33.25;20.42;;;5.30;99.90;;;;;;4974227;28;20101;-71
2021/12/08 09:20:56;;;;;;;29.52;16.95;;;5.30;99.90;;;;;;4973685;28;20042;-72
2021/12/08 09:23:38;;;;;;;31.95;18.27;;;5.20;99.90;;;;;;4967838;28;20132;-73
2021/12/08 09:26:12;;;;;;;29.10;14.85;;;5.20;99.90;;;;;;4983794;28;20030;-72
2021/12/08 09:28:43;;;;;;;23.40;14.25;;;5.10;99.90;;;;;;4972201;28;20027;-71
2021/12/08 09:31:17;;;;;;;25.67;13.05;;;5.20;99.90;;;;;;4972825;28;20106;-71
2021/12/08 09:34:05;;;;;;;26.35;13.77;;;5.30;99.90;;;;;;4978803;28;20042;-74
2021/12/08 09:36:41;;;;;;;29.98;17.85;;;5.50;99.90;;;;;;4977468;28;20050;-72
2021/12/08 09:39:24;;;;;;;23.73;14.95;;;5.60;99.90;;;;;;4986148;28;20030;-73
2021/12/08 09:42:07;;;;;;;29.90;15.85;;;5.60;99.90;;;;;;4994558;28;20030;-74
2021/12/08 09:44:41;;;;;;;23.27;13.35;;;5.70;99.90;;;;;;4994145;28;20034;-73
2021/12/08 09:47:07;;;;;;;24.90;15.40;;;5.60;99.90;;;;;;4994339;28;20046;-74
2021/12/08 09:49:34;;;;;;;25.05;13.70;;;5.70;99.90;;;;;;4994413;28;20019;-73
2021/12/08 09:52:05;;;;;;;26.50;14.75;;;5.90;99.90;;;;;;4992655;28;20036;-73
2021/12/08 09:54:32;;;;;;;20.27;11.57;;;5.90;99.90;;;;;;4992243;28;20081;-73
2021/12/08 09:57:00;;;;;;;21.25;11.77;;;5.90;99.40;;;;;;4991908;28;20034;-73
2021/12/08 09:59:26;;;;;;;26.60;13.20;;;6.00;98.60;;;;;;4994047;28;20425;-73
2021/12/08 10:01:53;;;;;;;26.50;16.13;;;5.90;98.20;;;;;;4994093;28;20134;-73
2021/12/08 10:04:19;;;;;;;23.75;12.18;;;5.90;99.30;;;;;;4994299;28;20034;-72
2021/12/08 10:06:49;;;;;;;21.33;11.88;;;5.90;99.90;;;;;;4994079;28;20025;-73
2021/12/08 10:09:20;;;;;;;22.60;12.43;;;5.90;99.90;;;;;;4993938;28;20026;-73
2021/12/08 10:11:46;;;;;;;28.60;16.48;;;6.10;98.90;;;;;;4993921;28;20476;-73
2021/12/08 10:14:13;;;;;;;21.15;12.15;;;6.00;97.50;;;;;;4992740;28;20117;-73
2021/12/08 10:16:39;;;;;;;18.17;10.60;;;6.00;99.80;;;;;;4993212;28;20476;-73
2021/12/08 10:19:05;;;;;;;22.15;11.27;;;6.00;96.30;;;;;;4993898;28;20030;-72
2021/12/08 10:21:41;;;;;;;20.88;10.30;;;6.00;95.20;;;;;;4993891;28;20054;-73
2021/12/08 10:24:36;;;;;;;19.42;10.10;;;5.90;95.90;;;;;;4993516;28;20045;-73
2021/12/08 10:27:06;;;;;;;21.95;11.65;;;5.80;95.60;;;;;;4933665;29;20406;-73
2021/12/08 10:29:32;;;;;;;19.65;10.93;;;5.90;97.60;;;;;;4933792;29;20031;-73
2021/12/08 10:32:00;;;;;;;24.38;11.40;;;5.90;95.20;;;;;;4933436;29;20035;-72
2021/12/08 10:34:36;;;;;;;25.02;11.65;;;5.90;96.20;;;;;;4932437;29;20526;-73
2021/12/08 10:37:14;;;;;;;23.80;12.52;;;6.20;97.40;;;;;;4933152;29;20044;-72
2021/12/08 10:39:45;;;;;;;23.98;12.88;;;6.00;96.10;;;;;;4933518;29;20050;-72
2021/12/08 10:42:22;;;;;;;24.38;14.48;;;6.00;95.80;;;;;;4932843;29;20059;-73
2021/12/08 10:44:53;;;;;;;22.95;12.02;;;5.90;96.00;;;;;;4933179;29;20402;-72
2021/12/08 10:47:24;;;;;;;23.70;13.60;;;6.00;96.00;;;;;;4933660;29;20067;-72
2021/12/08 10:55:20;;;;;;;23.65;10.48;;;6.10;97.20;;;;;;4933201;29;20047;-72
2021/12/08 10:57:50;;;;;;;19.80;11.23;;;6.00;95.90;;;;;;4933259;29;20065;-73
2021/12/08 11:00:18;;;;;;;19.52;11.05;;;6.00;94.60;;;;;;4933523;29;20080;-73
2021/12/08 11:02:47;;;;;;;19.02;10.57;;;6.00;95.90;;;;;;4946644;28;20134;-72
2021/12/08 11:05:25;;;;;;;21.55;11.20;;;6.20;95.70;;;;;;4993132;28;20357;-72
2021/12/08 11:07:59;;;;;;;17.48;9.95;;;6.30;95.60;;;;;;4994494;28;20476;-73
2021/12/08 11:10:26;;;;;;;32.70;17.40;;;6.40;95.30;;;;;;4996853;28;20038;-72
2021/12/08 11:12:55;;;;;;;32.13;16.98;;;6.30;94.50;;;;;;4996893;28;20045;-70
2021/12/08 11:15:23;;;;;;;26.67;14.07;;;6.20;95.10;;;;;;4997144;28;20034;-73
2021/12/08 11:18:29;;;;;;;24.50;13.82;;;6.20;95.60;;;;;;4997619;28;20022;-73
2021/12/08 11:21:02;;;;;;;24.42;14.27;;;6.10;95.20;;;;;;4996731;28;20152;-72
2021/12/08 11:23:45;;;;;;;30.52;18.98;;;6.00;95.70;;;;;;4996813;28;20030;-72
2021/12/08 11:26:14;;;;;;;32.20;16.73;;;6.10;95.90;;;;;;4996999;28;20034;-73
2021/12/08 11:28:40;;;;;;;25.83;13.23;;;6.20;95.90;;;;;;4997141;28;20023;-73
2021/12/08 11:31:16;;;;;;;17.73;10.45;;;6.10;95.10;;;;;;4996522;28;20049;-73
2021/12/08 11:33:49;;;;;;;21.45;11.35;;;6.10;95.60;;;;;;4996409;28;20381;-72
2021/12/08 11:36:17;;;;;;;;;;;6.10;97.10;;;;;;4997316;28;20042;-74
2021/12/08 11:38:48;;;;;;;26.27;13.70;;;6.20;97.30;;;;;;4996683;28;19905;-73
2021/12/08 11:41:23;;;;;;;25.88;14.98;;;6.30;97.30;;;;;;4996920;28;20030;-73
2021/12/08 11:43:54;;;;;;;25.33;15.48;;;6.40;97.20;;;;;;4996665;28;20072;-73
2021/12/08 11:46:21;;;;;;;29.85;14.13;;;6.40;97.40;;;;;;4996852;28;20093;-73
2021/12/08 11:48:57;;;;;;;22.40;12.63;;;6.40;98.30;;;;;;4996514;28;20023;-74
2021/12/08 11:51:23;;;;;;;26.77;13.75;;;6.40;97.10;;;;;;4996712;28;20027;-73
2021/12/08 11:53:49;;;;;;;26.23;14.20;;;6.40;96.60;;;;;;4996045;28;20054;-73
2021/12/08 11:56:33;;;;;;;26.25;15.90;;;6.50;97.40;;;;;;4996350;28;20029;-73
2021/12/08 11:59:00;;;;;;;30.05;18.00;;;6.60;95.80;;;;;;4996125;28;20030;-74
2021/12/08 12:01:26;;;;;;;29.83;17.38;;;6.60;96.00;;;;;;4995638;28;20368;-73
2021/12/08 12:03:52;;;;;;;23.60;14.10;;;6.70;96.00;;;;;;4994911;28;20026;-74
2021/12/08 12:06:18;;;;;;;26.30;14.02;;;6.60;94.50;;;;;;4996328;28;20023;-73
2021/12/08 12:08:47;;;;;;;24.48;15.23;;;6.50;94.70;;;;;;4996379;28;20034;-74
2021/12/08 12:11:13;;;;;;;19.30;12.32;;;6.40;94.20;;;;;;4996072;28;20468;-72
2021/12/08 12:13:39;;;;;;;24.67;13.55;;;6.40;94.90;;;;;;4995927;28;20038;-72
2021/12/08 12:16:05;;;;;;;26.00;15.32;;;6.30;94.30;;;;;;4995904;28;20025;-73
2021/12/08 12:18:33;;;;;;;26.90;14.20;;;6.20;94.50;;;;;;4995765;28;20085;-73
2021/12/08 12:21:25;;;;;;;30.58;15.75;;;6.30;95.70;;;;;;4995467;28;20048;-74
2021/12/08 12:24:32;;;;;;;27.30;14.82;;;6.10;96.30;;;;;;4995842;28;20061;-73
2021/12/08 12:27:26;;;;;;;28.45;16.83;;;6.10;96.90;;;;;;4935664;29;20375;-73
2021/12/08 12:30:11;;;;;;;26.83;15.73;;;6.00;95.70;;;;;;4935603;29;20175;-72
2021/12/08 12:32:45;;;;;;;25.45;16.17;;;6.00;96.00;;;;;;4935502;29;20159;-73
2021/12/08 12:35:12;;;;;;;34.95;21.23;;;6.00;96.10;;;;;;4934960;29;20097;-73
2021/12/08 12:37:39;;;;;;;31.77;19.30;;;6.10;96.20;;;;;;4934863;29;20028;-73
2021/12/08 12:40:10;;;;;;;31.20;18.17;;;6.00;95.80;;;;;;4935384;29;20042;-74
2021/12/08 12:42:50;;;;;;;49.63;25.67;;;6.10;96.10;;;;;;4935484;29;20028;-74
2021/12/08 12:45:17;;;;;;;37.38;22.40;;;6.10;98.00;;;;;;4935308;29;20047;-74
2021/12/08 12:48:04;;;;;;;30.98;17.77;;;6.10;97.50;;;;;;4935503;29;20032;-74
2021/12/08 12:50:29;;;;;;;26.40;13.65;;;6.10;97.00;;;;;;4935360;29;20043;-74
2021/12/08 12:52:58;;;;;;;30.83;16.10;;;6.10;96.10;;;;;;4934089;29;20051;-73
2021/12/08 12:55:35;;;;;;;38.83;22.13;;;6.00;96.40;;;;;;4934828;29;20241;-74
2021/12/08 12:58:08;;;;;;;24.83;15.70;;;6.00;96.30;;;;;;4935270;29;20051;-74
2021/12/08 13:00:51;;;;;;;35.67;21.10;;;6.00;96.30;;;;;;4935508;29;20032;-74
2021/12/08 13:03:40;;;;;;;29.75;16.38;;;6.00;96.70;;;;;;4955692;28;20038;-74
2021/12/08 13:06:07;;;;;;;21.73;11.23;;;5.90;96.10;;;;;;4995404;28;20061;-74
2021/12/08 13:08:40;;;;;;;20.52;10.95;;;5.90;95.90;;;;;;4994943;28;20126;-73
2021/12/08 13:11:54;;;;;;;26.75;13.75;;;5.90;95.60;;;;;;4995268;28;20037;-73
2021/12/08 13:14:23;;;;;;;19.52;10.93;;;6.00;94.90;;;;;;4995352;28;20044;-74
2021/12/08 13:17:12;;;;;;;25.10;12.77;;;5.90;94.70;;;;;;4994824;28;20015;-73
2021/12/08 13:19:41;;;;;;;25.25;15.25;;;5.90;94.80;;;;;;4995105;28;20422;-74
2021/12/08 13:22:07;;;;;;;26.77;14.98;;;5.90;95.30;;;;;;4995019;28;20022;-73
2021/12/08 13:24:39;;;;;;;31.90;18.65;;;5.90;95.90;;;;;;4994764;28;20050;-74
2021/12/08 13:27:07;;;;;;;28.58;18.52;;;6.00;95.90;;;;;;4994864;28;20109;-74
2021/12/08 13:29:36;;;;;;;30.60;17.35;;;5.90;94.60;;;;;;4994607;28;20384;-74
2021/12/08 13:32:16;;;;;;;31.77;17.77;;;5.90;95.00;;;;;;4994850;28;20037;-74
2021/12/08 13:34:45;;;;;;;26.40;14.63;;;5.90;95.20;;;;;;4994700;28;20156;-74
2021/12/08 13:37:21;;;;;;;25.67;15.43;;;5.80;94.80;;;;;;4994705;28;20050;-73
2021/12/08 13:39:49;;;;;;;26.75;14.77;;;5.80;94.80;;;;;;4994243;28;20137;-73